sensor_id;sensor_type;location;lat;lon;timestamp;pressure;altitude;pressure_sealevel;temperature;humidity
46876;BME280;32866;50.160;14.768;2023-12-20T00:00:08;98981.03;;;4.87;100.00
46876;BME280;32866;50.160;14.768;2023-12-20T00:02:35;99005.25;;;5.01;100.00
46876;BME280;32866;50.160;14.768;2023-12-20T00:05:01;99013.22;;;5.15;100.00
46876;BME280;32866;50.160;14.768;2023-12-20T00:07:27;98976.16;;;4.74;100.00
46876;BME280;32866;50.160;14.768;2023-12-20T00:09:53;99011.66;;;5.14;100.00
46876;BME280;32866;50.160;14.768;2023-12-20T00:12:19;98998.81;;;4.91;100.00
46876;BME280;32866;50.160;14.768;2023-12-20T00:14:45;99009.47;;;5.06;100.00
46876;BME280;32866;50.160;14.768;2023-12-20T00:17:11;99003.00;;;4.96;100.00
46876;BME280;32866;50.160;14.768;2023-12-20T00:19:37;99016.84;;;5.05;100.00
46876;BME280;32866;50.160;14.768;2023-12-20T00:22:03;98954.97;;;4.62;100.00
46876;BME280;32866;50.160;14.768;2023-12-20T00:24:29;99001.03;;;5.00;100.00
46876;BME280;32866;50.160;14.768;2023-12-20T00:26:55;98963.28;;;4.78;100.00
46876;BME280;32866;50.160;14.768;2023-12-20T00:29:21;98983.28;;;4.92;100.00
46876;BME280;32866;50.160;14.768;2023-12-20T00:31:47;98997.09;;;5.01;100.00
46876;BME280;32866;50.160;14.768;2023-12-20T00:34:13;99012.00;;;5.20;100.00
46876;BME280;32866;50.160;14.768;2023-12-20T00:36:39;98999.53;;;5.23;100.00
46876;BME280;32866;50.160;14.768;2023-12-20T00:39:05;98983.03;;;5.10;100.00
46876;BME280;32866;50.160;14.768;2023-12-20T00:41:32;98986.53;;;5.10;100.00
46876;BME280;32866;50.160;14.768;2023-12-20T00:43:58;98953.19;;;4.79;100.00
46876;BME280;32866;50.160;14.768;2023-12-20T00:46:24;98977.03;;;4.95;100.00
46876;BME280;32866;50.160;14.768;2023-12-20T00:48:50;98978.56;;;4.96;100.00
46876;BME280;32866;50.160;14.768;2023-12-20T00:51:16;98954.22;;;4.61;100.00
46876;BME280;32866;50.160;14.768;2023-12-20T00:53:42;98963.47;;;4.64;100.00
46876;BME280;32866;50.160;14.768;2023-12-20T00:56:09;98987.22;;;4.87;100.00
46876;BME280;32866;50.160;14.768;2023-12-20T00:58:34;99000.75;;;4.91;100.00
46876;BME280;32866;50.160;14.768;2023-12-20T01:01:00;98981.69;;;4.94;100.00
46876;BME280;32866;50.160;14.768;2023-12-20T01:03:27;98977.81;;;4.95;100.00
46876;BME280;32866;50.160;14.768;2023-12-20T01:05:53;98967.00;;;4.92;100.00
46876;BME280;32866;50.160;14.768;2023-12-20T01:08:19;98916.56;;;4.63;100.00
46876;BME280;32866;50.160;14.768;2023-12-20T01:10:45;98953.72;;;4.97;100.00
46876;BME280;32866;50.160;14.768;2023-12-20T01:13:12;98936.59;;;4.73;100.00
46876;BME280;32866;50.160;14.768;2023-12-20T01:15:38;98958.09;;;4.91;100.00
46876;BME280;32866;50.160;14.768;2023-12-20T01:18:04;98950.03;;;4.84;100.00
46876;BME280;32866;50.160;14.768;2023-12-20T01:20:30;98938.50;;;4.76;100.00
46876;BME280;32866;50.160;14.768;2023-12-20T01:22:56;98952.31;;;4.86;100.00
46876;BME280;32866;50.160;14.768;2023-12-20T01:25:22;98943.53;;;4.78;100.00
46876;BME280;32866;50.160;14.768;2023-12-20T01:27:48;98885.56;;;4.34;100.00
46876;BME280;32866;50.160;14.768;2023-12-20T01:30:14;98894.56;;;4.27;100.00
46876;BME280;32866;50.160;14.768;2023-12-20T01:32:40;98932.91;;;4.60;100.00
46876;BME280;32866;50.160;14.768;2023-12-20T01:35:07;98936.44;;;4.57;100.00
46876;BME280;32866;50.160;14.768;2023-12-20T01:37:33;98921.25;;;4.63;100.00
46876;BME280;32866;50.160;14.768;2023-12-20T01:39:58;98872.44;;;4.28;100.00
46876;BME280;32866;50.160;14.768;2023-12-20T01:42:24;98912.38;;;4.59;100.00
46876;BME280;32866;50.160;14.768;2023-12-20T01:44:50;98841.97;;;4.17;100.00
46876;BME280;32866;50.160;14.768;2023-12-20T01:47:16;98850.50;;;4.19;100.00
46876;BME280;32866;50.160;14.768;2023-12-20T01:49:43;98899.94;;;4.61;100.00
46876;BME280;32866;50.160;14.768;2023-12-20T01:52:09;98888.41;;;4.54;100.00
46876;BME280;32866;50.160;14.768;2023-12-20T01:54:36;98882.09;;;4.60;100.00
46876;BME280;32866;50.160;14.768;2023-12-20T01:57:01;98876.94;;;4.70;100.00
46876;BME280;32866;50.160;14.768;2023-12-20T01:59:29;98885.13;;;4.66;100.00
46876;BME280;32866;50.160;14.768;2023-12-20T02:01:55;98849.88;;;4.35;100.00
46876;BME280;32866;50.160;14.768;2023-12-20T02:04:21;98834.22;;;4.19;100.00
46876;BME280;32866;50.160;14.768;2023-12-20T02:06:48;98892.56;;;4.62;100.00
46876;BME280;32866;50.160;14.768;2023-12-20T02:09:18;98840.00;;;4.21;100.00
46876;BME280;32866;50.160;14.768;2023-12-20T02:11:44;98890.56;;;4.66;100.00
46876;BME280;32866;50.160;14.768;2023-12-20T02:14:09;98853.06;;;4.30;100.00
46876;BME280;32866;50.160;14.768;2023-12-20T02:16:36;98890.56;;;4.66;100.00
46876;BME280;32866;50.160;14.768;2023-12-20T02:19:04;98880.25;;;4.54;100.00
46876;BME280;32866;50.160;14.768;2023-12-20T02:21:32;98876.44;;;4.51;100.00
46876;BME280;32866;50.160;14.768;2023-12-20T02:23:59;98870.53;;;4.29;100.00
46876;BME280;32866;50.160;14.768;2023-12-20T02:26:25;98844.69;;;4.17;100.00
46876;BME280;32866;50.160;14.768;2023-12-20T02:28:51;98853.16;;;4.23;100.00
46876;BME280;32866;50.160;14.768;2023-12-20T02:31:17;98859.13;;;4.41;100.00
46876;BME280;32866;50.160;14.768;2023-12-20T02:33:46;98881.91;;;4.48;100.00
46876;BME280;32866;50.160;14.768;2023-12-20T02:36:12;98860.50;;;4.26;100.00
46876;BME280;32866;50.160;14.768;2023-12-20T02:38:38;98860.19;;;4.17;100.00
46876;BME280;32866;50.160;14.768;2023-12-20T02:41:04;98868.28;;;4.20;100.00
46876;BME280;32866;50.160;14.768;2023-12-20T02:43:30;98833.63;;;4.04;100.00
46876;BME280;32866;50.160;14.768;2023-12-20T02:45:56;98858.59;;;4.23;100.00
46876;BME280;32866;50.160;14.768;2023-12-20T02:48:22;98888.59;;;4.39;100.00
46876;BME280;32866;50.160;14.768;2023-12-20T02:50:48;98887.06;;;4.38;100.00
46876;BME280;32866;50.160;14.768;2023-12-20T02:53:14;98865.50;;;4.27;100.00
46876;BME280;32866;50.160;14.768;2023-12-20T02:55:40;98841.00;;;4.04;100.00
46876;BME280;32866;50.160;14.768;2023-12-20T02:58:07;98875.91;;;4.33;100.00
46876;BME280;32866;50.160;14.768;2023-12-20T03:00:33;98866.84;;;4.12;100.00
46876;BME280;32866;50.160;14.768;2023-12-20T03:02:59;98850.72;;;4.01;100.00
46876;BME280;32866;50.160;14.768;2023-12-20T03:05:25;98884.09;;;4.25;100.00
46876;BME280;32866;50.160;14.768;2023-12-20T03:07:51;98880.28;;;4.23;100.00
46876;BME280;32866;50.160;14.768;2023-12-20T03:10:18;98870.34;;;4.13;100.00
46876;BME280;32866;50.160;14.768;2023-12-20T03:12:44;98879.53;;;4.19;100.00
46876;BME280;32866;50.160;14.768;2023-12-20T03:15:10;98814.22;;;3.75;100.00
46876;BME280;32866;50.160;14.768;2023-12-20T03:17:36;98879.19;;;4.17;100.00
46876;BME280;32866;50.160;14.768;2023-12-20T03:20:03;98874.22;;;4.12;100.00
46876;BME280;32866;50.160;14.768;2023-12-20T03:22:29;98873.41;;;4.15;100.00
46876;BME280;32866;50.160;14.768;2023-12-20T03:24:55;98859.28;;;3.96;100.00
46876;BME280;32866;50.160;14.768;2023-12-20T03:27:21;98844.34;;;3.84;100.00
46876;BME280;32866;50.160;14.768;2023-12-20T03:29:47;98854.41;;;3.84;100.00
46876;BME280;32866;50.160;14.768;2023-12-20T03:32:13;98828.97;;;3.74;100.00
46876;BME280;32866;50.160;14.768;2023-12-20T03:34:39;98843.16;;;3.85;100.00
46876;BME280;32866;50.160;14.768;2023-12-20T03:37:05;98855.94;;;3.85;100.00
46876;BME280;32866;50.160;14.768;2023-12-20T03:39:31;98841.28;;;3.79;100.00
46876;BME280;32866;50.160;14.768;2023-12-20T03:41:57;98876.53;;;4.13;100.00
46876;BME280;32866;50.160;14.768;2023-12-20T03:44:23;98882.50;;;4.01;100.00
46876;BME280;32866;50.160;14.768;2023-12-20T03:46:49;98870.50;;;3.98;100.00
46876;BME280;32866;50.160;14.768;2023-12-20T03:49:15;98871.25;;;4.02;100.00
46876;BME280;32866;50.160;14.768;2023-12-20T03:51:41;98825.91;;;3.68;100.00
46876;BME280;32866;50.160;14.768;2023-12-20T03:54:08;98825.56;;;3.66;100.00
46876;BME280;32866;50.160;14.768;2023-12-20T03:56:34;98846.78;;;3.71;100.00
46876;BME280;32866;50.160;14.768;2023-12-20T03:59:00;98868.06;;;4.07;100.00
46876;BME280;32866;50.160;14.768;2023-12-20T04:01:26;98871.94;;;4.06;100.00
46876;BME280;32866;50.160;14.768;2023-12-20T04:03:52;98878.94;;;4.07;100.00
46876;BME280;32866;50.160;14.768;2023-12-20T04:06:18;98878.94;;;4.07;100.00
46876;BME280;32866;50.160;14.768;2023-12-20T04:08:44;98878.53;;;4.05;100.00
46876;BME280;32866;50.160;14.768;2023-12-20T04:11:09;98879.38;;;4.02;100.00
46876;BME280;32866;50.160;14.768;2023-12-20T04:13:35;98876.25;;;4.04;100.00
46876;BME280;32866;50.160;14.768;2023-12-20T04:16:01;98868.13;;;4.04;100.00
46876;BME280;32866;50.160;14.768;2023-12-20T04:18:27;98872.75;;;4.03;100.00
46876;BME280;32866;50.160;14.768;2023-12-20T04:20:53;98876.66;;;4.02;100.00
46876;BME280;32866;50.160;14.768;2023-12-20T04:23:19;98878.97;;;4.04;100.00
46876;BME280;32866;50.160;14.768;2023-12-20T04:25:45;98872.41;;;4.01;100.00
46876;BME280;32866;50.160;14.768;2023-12-20T04:28:11;98875.13;;;4.01;100.00
46876;BME280;32866;50.160;14.768;2023-12-20T04:30:36;98871.66;;;4.01;100.00
46876;BME280;32866;50.160;14.768;2023-12-20T04:33:02;98877.81;;;4.01;100.00
46876;BME280;32866;50.160;14.768;2023-12-20T04:35:28;98880.53;;;4.01;100.00
46876;BME280;32866;50.160;14.768;2023-12-20T04:37:54;98884.41;;;4.00;100.00
46876;BME280;32866;50.160;14.768;2023-12-20T04:40:20;98879.00;;;4.00;100.00
46876;BME280;32866;50.160;14.768;2023-12-20T04:42:45;98887.50;;;4.02;100.00
46876;BME280;32866;50.160;14.768;2023-12-20T04:45:11;98878.19;;;4.03;100.00
46876;BME280;32866;50.160;14.768;2023-12-20T04:47:39;98877.81;;;4.01;100.00
46876;BME280;32866;50.160;14.768;2023-12-20T04:50:05;98873.97;;;3.99;100.00
46876;BME280;32866;50.160;14.768;2023-12-20T04:52:31;98873.63;;;3.97;100.00
46876;BME280;32866;50.160;14.768;2023-12-20T04:54:56;98884.47;;;3.97;100.00
46876;BME280;32866;50.160;14.768;2023-12-20T04:57:22;98882.53;;;3.97;100.00
46876;BME280;32866;50.160;14.768;2023-12-20T04:59:48;98885.25;;;3.97;100.00
46876;BME280;32866;50.160;14.768;2023-12-20T05:02:14;98888.31;;;3.99;100.00
46876;BME280;32866;50.160;14.768;2023-12-20T05:04:39;98879.03;;;3.97;100.00
46876;BME280;32866;50.160;14.768;2023-12-20T05:07:05;98875.97;;;3.95;100.00
46876;BME280;32866;50.160;14.768;2023-12-20T05:09:32;98877.50;;;3.96;100.00
46876;BME280;32866;50.160;14.768;2023-12-20T05:11:57;98872.09;;;3.96;100.00
46876;BME280;32866;50.160;14.768;2023-12-20T05:14:23;98880.63;;;3.94;100.00
46876;BME280;32866;50.160;14.768;2023-12-20T05:16:50;98881.38;;;3.95;100.00
46876;BME280;32866;50.160;14.768;2023-12-20T05:19:16;98883.34;;;3.94;100.00
46876;BME280;32866;50.160;14.768;2023-12-20T05:21:42;98886.06;;;3.94;100.00
46876;BME280;32866;50.160;14.768;2023-12-20T05:24:07;98884.50;;;3.93;100.00
46876;BME280;32866;50.160;14.768;2023-12-20T05:26:33;98881.38;;;3.95;100.00
46876;BME280;32866;50.160;14.768;2023-12-20T05:28:59;98891.47;;;3.94;100.00
46876;BME280;32866;50.160;14.768;2023-12-20T05:31:25;98897.75;;;3.87;100.00
46876;BME280;32866;50.160;14.768;2023-12-20T05:33:50;98906.28;;;3.86;100.00
46876;BME280;32866;50.160;14.768;2023-12-20T05:36:16;98907.84;;;3.83;100.00
46876;BME280;32866;50.160;14.768;2023-12-20T05:38:42;98905.91;;;3.84;100.00
46876;BME280;32866;50.160;14.768;2023-12-20T05:41:08;98896.59;;;3.85;100.00
46876;BME280;32866;50.160;14.768;2023-12-20T05:43:33;98889.66;;;3.84;100.00
46876;BME280;32866;50.160;14.768;2023-12-20T05:45:59;98888.09;;;3.83;100.00
46876;BME280;32866;50.160;14.768;2023-12-20T05:48:25;98898.59;;;3.81;100.00
46876;BME280;32866;50.160;14.768;2023-12-20T05:50:51;98899.41;;;3.78;100.00
46876;BME280;32866;50.160;14.768;2023-12-20T05:53:16;98901.69;;;3.79;100.00
46876;BME280;32866;50.160;14.768;2023-12-20T05:55:42;98909.44;;;3.81;100.00
46876;BME280;32866;50.160;14.768;2023-12-20T05:58:11;98895.50;;;3.79;100.00
46876;BME280;32866;50.160;14.768;2023-12-20T06:00:37;98904.81;;;3.78;100.00
46876;BME280;32866;50.160;14.768;2023-12-20T06:03:03;98907.91;;;3.76;100.00
46876;BME280;32866;50.160;14.768;2023-12-20T06:05:30;98902.13;;;3.74;100.00
46876;BME280;32866;50.160;14.768;2023-12-20T06:07:56;98897.13;;;3.72;100.00
46876;BME280;32866;50.160;14.768;2023-12-20T06:10:27;98902.53;;;3.72;100.00
46876;BME280;32866;50.160;14.768;2023-12-20T06:12:52;98905.25;;;3.72;100.00
46876;BME280;32866;50.160;14.768;2023-12-20T06:15:18;98907.97;;;3.72;100.00
46876;BME280;32866;50.160;14.768;2023-12-20T06:17:44;98909.47;;;3.74;100.00
46876;BME280;32866;50.160;14.768;2023-12-20T06:20:11;98907.97;;;3.72;100.00
46876;BME280;32866;50.160;14.768;2023-12-20T06:22:37;98915.34;;;3.72;100.00
46876;BME280;32866;50.160;14.768;2023-12-20T06:25:03;98918.88;;;3.65;100.00
46876;BME280;32866;50.160;14.768;2023-12-20T06:27:29;98913.81;;;3.67;100.00
46876;BME280;32866;50.160;14.768;2023-12-20T06:29:55;98918.81;;;3.72;100.00
46876;BME280;32866;50.160;14.768;2023-12-20T06:32:21;98923.47;;;3.72;100.00
46876;BME280;32866;50.160;14.768;2023-12-20T06:34:49;98929.66;;;3.72;100.00
46876;BME280;32866;50.160;14.768;2023-12-20T06:37:14;98915.75;;;3.67;100.00
46876;BME280;32866;50.160;14.768;2023-12-20T06:39:40;98918.50;;;3.63;100.00
46876;BME280;32866;50.160;14.768;2023-12-20T06:42:06;98922.00;;;3.60;100.00
46876;BME280;32866;50.160;14.768;2023-12-20T06:44:32;98920.44;;;3.63;100.00
46876;BME280;32866;50.160;14.768;2023-12-20T06:46:58;98931.25;;;3.66;100.00
46876;BME280;32866;50.160;14.768;2023-12-20T06:49:24;98934.34;;;3.65;100.00
46876;BME280;32866;50.160;14.768;2023-12-20T06:51:49;98939.00;;;3.64;100.00
46876;BME280;32866;50.160;14.768;2023-12-20T06:54:15;98938.25;;;3.64;100.00
46876;BME280;32866;50.160;14.768;2023-12-20T06:56:41;98951.41;;;3.65;100.00
46876;BME280;32866;50.160;14.768;2023-12-20T06:59:07;98954.91;;;3.62;100.00
46876;BME280;32866;50.160;14.768;2023-12-20T07:01:32;98956.84;;;3.62;100.00
46876;BME280;32866;50.160;14.768;2023-12-20T07:03:58;98941.56;;;3.37;100.00
46876;BME280;32866;50.160;14.768;2023-12-20T07:06:24;98908.41;;;3.22;100.00
46876;BME280;32866;50.160;14.768;2023-12-20T07:08:52;98924.59;;;3.29;100.00
46876;BME280;32866;50.160;14.768;2023-12-20T07:11:18;98976.19;;;3.60;100.00
46876;BME280;32866;50.160;14.768;2023-12-20T07:13:44;98955.53;;;3.36;100.00
46876;BME280;32866;50.160;14.768;2023-12-20T07:16:10;98959.38;;;3.34;100.00
46876;BME280;32866;50.160;14.768;2023-12-20T07:18:37;98946.34;;;3.22;100.00
46876;BME280;32866;50.160;14.768;2023-12-20T07:21:03;98959.38;;;3.34;100.00
46876;BME280;32866;50.160;14.768;2023-12-20T07:23:29;98985.88;;;3.61;100.00
46876;BME280;32866;50.160;14.768;2023-12-20T07:25:55;98966.34;;;3.36;100.00
46876;BME280;32866;50.160;14.768;2023-12-20T07:28:21;98957.09;;;3.29;100.00
46876;BME280;32866;50.160;14.768;2023-12-20T07:30:47;98938.16;;;3.29;100.00
46876;BME280;32866;50.160;14.768;2023-12-20T07:33:13;98963.31;;;3.26;100.00
46876;BME280;32866;50.160;14.768;2023-12-20T07:35:39;98993.25;;;3.61;100.00
46876;BME280;32866;50.160;14.768;2023-12-20T07:38:05;98971.41;;;3.33;100.00
46876;BME280;32866;50.160;14.768;2023-12-20T07:40:32;98972.97;;;3.31;100.00
46876;BME280;32866;50.160;14.768;2023-12-20T07:42:58;98977.19;;;3.36;100.00
46876;BME280;32866;50.160;14.768;2023-12-20T07:45:24;98983.72;;;3.38;100.00
46876;BME280;32866;50.160;14.768;2023-12-20T07:47:50;98978.69;;;3.40;100.00
46876;BME280;32866;50.160;14.768;2023-12-20T07:50:16;99002.53;;;3.60;100.00
46876;BME280;32866;50.160;14.768;2023-12-20T07:52:42;98965.63;;;3.28;100.00
46876;BME280;32866;50.160;14.768;2023-12-20T07:55:08;99014.81;;;3.71;100.00
46876;BME280;32866;50.160;14.768;2023-12-20T07:57:34;99006.72;;;3.68;100.00
46876;BME280;32866;50.160;14.768;2023-12-20T08:00:00;98961.69;;;3.36;100.00
46876;BME280;32866;50.160;14.768;2023-12-20T08:02:26;99019.41;;;3.78;100.00
46876;BME280;32866;50.160;14.768;2023-12-20T08:04:52;99020.19;;;3.79;100.00
46876;BME280;32866;50.160;14.768;2023-12-20T08:07:18;98979.44;;;3.44;100.00
46876;BME280;32866;50.160;14.768;2023-12-20T08:09:44;99003.97;;;3.71;100.00
46876;BME280;32866;50.160;14.768;2023-12-20T08:12:10;99002.75;;;3.80;100.00
46876;BME280;32866;50.160;14.768;2023-12-20T08:14:37;98986.16;;;3.74;100.00
46876;BME280;32866;50.160;14.768;2023-12-20T08:17:03;98996.81;;;3.92;100.00
46876;BME280;32866;50.160;14.768;2023-12-20T08:19:29;98951.81;;;3.60;100.00
46876;BME280;32866;50.160;14.768;2023-12-20T08:21:55;98970.66;;;3.75;100.00
46876;BME280;32866;50.160;14.768;2023-12-20T08:24:21;99004.13;;;3.99;100.00
46876;BME280;32866;50.160;14.768;2023-12-20T08:26:47;99009.13;;;4.00;100.00
46876;BME280;32866;50.160;14.768;2023-12-20T08:29:13;99001.44;;;3.95;100.00
46876;BME280;32866;50.160;14.768;2023-12-20T08:31:40;98976.00;;;3.82;100.00
46876;BME280;32866;50.160;14.768;2023-12-20T08:34:06;99031.59;;;4.04;100.00
46876;BME280;32866;50.160;14.768;2023-12-20T08:36:32;98958.38;;;3.63;100.00
46876;BME280;32866;50.160;14.768;2023-12-20T08:38:58;99029.28;;;4.03;100.00
46876;BME280;32866;50.160;14.768;2023-12-20T08:41:26;99015.31;;;4.04;100.00
46876;BME280;32866;50.160;14.768;2023-12-20T08:43:52;99001.50;;;3.88;100.00
46876;BME280;32866;50.160;14.768;2023-12-20T08:46:18;98984.53;;;3.84;100.00
46876;BME280;32866;50.160;14.768;2023-12-20T08:48:44;98983.25;;;3.92;100.00
46876;BME280;32866;50.160;14.768;2023-12-20T08:51:10;98970.81;;;3.98;100.00
46876;BME280;32866;50.160;14.768;2023-12-20T08:53:36;99003.09;;;4.23;100.00
46876;BME280;32866;50.160;14.768;2023-12-20T08:56:02;99024.03;;;4.23;100.00
46876;BME280;32866;50.160;14.768;2023-12-20T08:58:28;99012.88;;;4.14;100.00
46876;BME280;32866;50.160;14.768;2023-12-20T09:00:54;99014.50;;;4.07;100.00
46876;BME280;32866;50.160;14.768;2023-12-20T09:03:20;98994.59;;;3.83;100.00
46876;BME280;32866;50.160;14.768;2023-12-20T09:05:46;98979.25;;;3.66;100.00
46876;BME280;32866;50.160;14.768;2023-12-20T09:08:12;99030.78;;;4.07;100.00
46876;BME280;32866;50.160;14.768;2023-12-20T09:10:38;99024.56;;;4.11;100.00
46876;BME280;32866;50.160;14.768;2023-12-20T09:13:04;99024.53;;;4.14;100.00
46876;BME280;32866;50.160;14.768;2023-12-20T09:15:30;98979.16;;;3.77;100.00
46876;BME280;32866;50.160;14.768;2023-12-20T09:17:56;98999.13;;;3.94;100.00
46876;BME280;32866;50.160;14.768;2023-12-20T09:20:22;98975.97;;;3.85;100.00
46876;BME280;32866;50.160;14.768;2023-12-20T09:22:49;99032.47;;;4.32;100.00
46876;BME280;32866;50.160;14.768;2023-12-20T09:25:15;99024.25;;;4.39;100.00
46876;BME280;32866;50.160;14.768;2023-12-20T09:27:43;99011.78;;;4.45;100.00
46876;BME280;32866;50.160;14.768;2023-12-20T09:30:09;99014.56;;;4.38;100.00
46876;BME280;32866;50.160;14.768;2023-12-20T09:32:35;99024.03;;;4.57;100.00
46876;BME280;32866;50.160;14.768;2023-12-20T09:35:02;98991.66;;;4.43;100.00
46876;BME280;32866;50.160;14.768;2023-12-20T09:37:28;99023.81;;;4.75;100.00
46876;BME280;32866;50.160;14.768;2023-12-20T09:39:54;98999.84;;;4.70;100.00
46876;BME280;32866;50.160;14.768;2023-12-20T09:42:39;99023.44;;;5.04;100.00
46876;BME280;32866;50.160;14.768;2023-12-20T09:45:13;98980.94;;;4.63;100.00
46876;BME280;32866;50.160;14.768;2023-12-20T09:47:42;99032.69;;;5.10;100.00
46876;BME280;32866;50.160;14.768;2023-12-20T09:50:09;99022.00;;;5.27;100.00
46876;BME280;32866;50.160;14.768;2023-12-20T09:52:36;99011.22;;;5.19;100.00
46876;BME280;32866;50.160;14.768;2023-12-20T09:55:04;99012.97;;;5.06;100.00
46876;BME280;32866;50.160;14.768;2023-12-20T09:57:32;98950.75;;;4.57;100.00
46876;BME280;32866;50.160;14.768;2023-12-20T09:59:58;99017.22;;;5.07;100.00
46876;BME280;32866;50.160;14.768;2023-12-20T10:02:25;98986.34;;;4.94;100.00
46876;BME280;32866;50.160;14.768;2023-12-20T10:04:55;99010.91;;;5.41;100.00
46876;BME280;32866;50.160;14.768;2023-12-20T10:07:21;98998.91;;;5.38;100.00
46876;BME280;32866;50.160;14.768;2023-12-20T10:09:48;99004.66;;;5.68;100.00
46876;BME280;32866;50.160;14.768;2023-12-20T10:12:14;99018.41;;;6.28;100.00
46876;BME280;32866;50.160;14.768;2023-12-20T10:14:40;98990.13;;;6.02;100.00
46876;BME280;32866;50.160;14.768;2023-12-20T10:17:06;98956.53;;;5.65;100.00
46876;BME280;32866;50.160;14.768;2023-12-20T10:19:33;99015.91;;;6.57;100.00
46876;BME280;32866;50.160;14.768;2023-12-20T10:21:59;99002.00;;;6.72;100.00
46876;BME280;32866;50.160;14.768;2023-12-20T10:24:28;99019.19;;;6.28;100.00
46876;BME280;32866;50.160;14.768;2023-12-20T10:27:12;99014.00;;;5.67;100.00
46876;BME280;32866;50.160;14.768;2023-12-20T10:29:38;98979.06;;;5.14;100.00
46876;BME280;32866;50.160;14.768;2023-12-20T10:34:52;99003.91;;;5.16;100.00
46876;BME280;32866;50.160;14.768;2023-12-20T10:37:19;99008.53;;;5.16;100.00
46876;BME280;32866;50.160;14.768;2023-12-20T10:39:49;98953.34;;;4.68;100.00
46876;BME280;32866;50.160;14.768;2023-12-20T10:42:18;99010.97;;;5.10;100.00
46876;BME280;32866;50.160;14.768;2023-12-20T10:44:46;98955.03;;;4.86;100.00
46876;BME280;32866;50.160;14.768;2023-12-20T10:47:13;99009.72;;;5.42;100.00
46876;BME280;32866;50.160;14.768;2023-12-20T10:49:40;98952.78;;;5.08;100.00
46876;BME280;32866;50.160;14.768;2023-12-20T10:52:06;98999.63;;;5.43;100.00
46876;BME280;32866;50.160;14.768;2023-12-20T10:54:34;98948.59;;;5.03;100.00
46876;BME280;32866;50.160;14.768;2023-12-20T10:57:04;98974.09;;;5.36;100.00
46876;BME280;32866;50.160;14.768;2023-12-20T10:59:33;98985.16;;;5.49;100.00
46876;BME280;32866;50.160;14.768;2023-12-20T11:01:59;98935.38;;;5.05;100.00
46876;BME280;32866;50.160;14.768;2023-12-20T11:04:36;98931.78;;;5.12;100.00
46876;BME280;32866;50.160;14.768;2023-12-20T11:07:27;98930.38;;;5.27;100.00
46876;BME280;32866;50.160;14.768;2023-12-20T11:10:14;98984.50;;;5.65;100.00
46876;BME280;32866;50.160;14.768;2023-12-20T11:12:57;98949.25;;;5.38;100.00
46876;BME280;32866;50.160;14.768;2023-12-20T11:15:24;98962.16;;;5.54;100.00
46876;BME280;32866;50.160;14.768;2023-12-20T11:17:56;98961.09;;;5.48;100.00
46876;BME280;32866;50.160;14.768;2023-12-20T11:20:23;98960.69;;;5.49;100.00
46876;BME280;32866;50.160;14.768;2023-12-20T11:22:54;98890.28;;;5.11;100.00
46876;BME280;32866;50.160;14.768;2023-12-20T11:25:20;98952.41;;;5.80;100.00
46876;BME280;32866;50.160;14.768;2023-12-20T11:28:06;98961.03;;;5.99;100.00
46876;BME280;32866;50.160;14.768;2023-12-20T11:30:46;98942.47;;;5.93;100.00
46876;BME280;32866;50.160;14.768;2023-12-20T11:33:14;98955.13;;;6.04;100.00
46876;BME280;32866;50.160;14.768;2023-12-20T11:35:40;98946.97;;;6.24;100.00
46876;BME280;32866;50.160;14.768;2023-12-20T11:38:08;98947.94;;;6.34;100.00
46876;BME280;32866;50.160;14.768;2023-12-20T11:40:34;98916.28;;;5.80;100.00
46876;BME280;32866;50.160;14.768;2023-12-20T11:43:01;98880.03;;;5.43;100.00
46876;BME280;32866;50.160;14.768;2023-12-20T11:45:27;98931.25;;;5.44;100.00
46876;BME280;32866;50.160;14.768;2023-12-20T11:47:53;98935.94;;;5.20;100.00
46876;BME280;32866;50.160;14.768;2023-12-20T11:50:21;98904.19;;;4.90;100.00
46876;BME280;32866;50.160;14.768;2023-12-20T11:52:48;98926.97;;;4.96;100.00
46876;BME280;32866;50.160;14.768;2023-12-20T11:55:14;98906.75;;;5.24;100.00
46876;BME280;32866;50.160;14.768;2023-12-20T11:57:40;98908.78;;;7.33;100.00
46876;BME280;32866;50.160;14.768;2023-12-20T12:00:06;98902.41;;;7.98;100.00
46876;BME280;32866;50.160;14.768;2023-12-20T12:02:32;98899.50;;;8.61;100.00
46876;BME280;32866;50.160;14.768;2023-12-20T12:04:59;98904.91;;;9.38;100.00
46876;BME280;32866;50.160;14.768;2023-12-20T12:07:25;98854.78;;;9.98;100.00
46876;BME280;32866;50.160;14.768;2023-12-20T12:09:51;98903.56;;;10.34;100.00
46876;BME280;32866;50.160;14.768;2023-12-20T12:12:19;98866.72;;;10.35;100.00
46876;BME280;32866;50.160;14.768;2023-12-20T12:14:45;98908.03;;;10.82;100.00
46876;BME280;32866;50.160;14.768;2023-12-20T12:17:13;98909.50;;;9.76;100.00
46876;BME280;32866;50.160;14.768;2023-12-20T12:19:40;98905.63;;;9.64;100.00
46876;BME280;32866;50.160;14.768;2023-12-20T12:22:07;98908.59;;;10.14;100.00
46876;BME280;32866;50.160;14.768;2023-12-20T12:24:36;98875.16;;;10.19;100.00
46876;BME280;32866;50.160;14.768;2023-12-20T12:27:06;98901.38;;;10.29;100.00
46876;BME280;32866;50.160;14.768;2023-12-20T12:29:33;98857.91;;;9.87;100.00
46876;BME280;32866;50.160;14.768;2023-12-20T12:31:59;98888.56;;;10.48;100.00
46876;BME280;32866;50.160;14.768;2023-12-20T12:34:28;98860.53;;;9.91;100.00
46876;BME280;32866;50.160;14.768;2023-12-20T12:36:55;98882.22;;;9.50;100.00
46876;BME280;32866;50.160;14.768;2023-12-20T12:39:23;98862.59;;;9.29;100.00
46876;BME280;32866;50.160;14.768;2023-12-20T12:41:50;98881.63;;;9.90;100.00
46876;BME280;32866;50.160;14.768;2023-12-20T12:44:17;98861.91;;;9.95;100.00
46876;BME280;32866;50.160;14.768;2023-12-20T12:46:45;98842.03;;;10.26;100.00
46876;BME280;32866;50.160;14.768;2023-12-20T12:49:11;98882.34;;;10.57;100.00